Time;durP1;ratioP1;P1;durP2;ratioP2;P2;SDS_P1;SDS_P2;PMS_P1;PMS_P2;Temp;Humidity;BMP_temperature;BMP_pressure;BME280_temperature;BME280_humidity;BME280_pressure;Samples;Min_cycle;Max_cycle;Signal;HPM_P1;HPM_P2
2022/10/16 00:01:18;;;;;;;39.07;36.57;;;;;;;12.11;100.00;100695.00;5071548;28;21006;-51
2022/10/16 00:03:47;;;;;;;38.93;36.60;;;;;;;12.11;100.00;100708.38;5071740;28;20863;-49
2022/10/16 00:06:16;;;;;;;39.80;37.13;;;;;;;12.08;100.00;100698.94;5071119;28;20462;-49
2022/10/16 00:08:44;;;;;;;39.57;36.40;;;;;;;12.07;100.00;100697.28;5071589;28;20810;-49
2022/10/16 00:11:15;;;;;;;36.60;34.27;;;;;;;12.06;100.00;100692.97;5071508;28;20438;-52
2022/10/16 00:13:44;;;;;;;37.40;34.83;;;;;;;12.06;100.00;100702.84;5071395;28;20439;-52
2022/10/16 00:16:14;;;;;;;40.20;37.13;;;;;;;12.07;100.00;100704.47;5070931;28;20462;-49
2022/10/16 00:18:43;;;;;;;38.23;35.70;;;;;;;12.04;100.00;100703.03;5071360;28;20430;-50
2022/10/16 00:21:12;;;;;;;38.10;35.17;;;;;;;12.04;100.00;100700.34;5062936;28;20439;-53
2022/10/16 00:23:40;;;;;;;36.93;33.97;;;;;;;12.03;100.00;100711.28;5071371;28;20446;-46
2022/10/16 00:26:10;;;;;;;38.20;35.77;;;;;;;12.00;100.00;100711.69;5070983;28;20458;-49
2022/10/16 00:28:38;;;;;;;36.97;34.27;;;;;;;11.98;100.00;100709.19;5071539;28;20462;-49
2022/10/16 00:31:07;;;;;;;36.17;34.10;;;;;;;11.99;100.00;100710.03;5071764;28;20438;-49
2022/10/16 00:33:38;;;;;;;35.30;33.10;;;;;;;11.96;100.00;100719.28;5075079;28;20999;-49
2022/10/16 00:36:07;;;;;;;35.40;33.30;;;;;;;11.96;100.00;100719.28;5074639;28;20978;-50
2022/10/16 00:38:35;;;;;;;37.77;35.13;;;;;;;11.94;100.00;100726.69;5075187;28;20479;-51
2022/10/16 00:41:02;;;;;;;37.87;35.00;;;;;;;11.94;100.00;100729.38;5074804;28;20434;-47
2022/10/16 00:43:36;;;;;;;37.27;34.20;;;;;;;11.93;100.00;100719.69;5074960;28;20519;-49
2022/10/16 00:46:09;;;;;;;35.83;33.03;;;;;;;11.94;100.00;100728.53;5074341;28;20466;-47
2022/10/16 00:48:38;;;;;;;36.57;33.97;;;;;;;11.94;100.00;100724.03;5075126;28;20870;-48
2022/10/16 00:51:07;;;;;;;34.83;32.50;;;;;;;11.94;100.00;100726.69;5074686;28;20438;-50
2022/10/16 00:53:35;;;;;;;36.57;34.00;;;;;;;11.93;100.00;100716.19;5074813;28;20509;-47
2022/10/16 00:56:03;;;;;;;36.20;32.90;;;;;;;11.93;100.00;100722.38;5074244;28;20462;-49
2022/10/16 00:58:30;;;;;;;35.43;33.30;;;;;;;11.92;100.00;100723.38;5074884;28;20480;-51
2022/10/16 01:00:58;;;;;;;34.60;32.30;;;;;;;11.94;100.00;100725.88;5074345;28;20972;-50
2022/10/16 01:03:29;;;;;;;35.53;33.13;;;;;;;11.93;100.00;100726.88;5074653;28;20449;-49
2022/10/16 01:06:19;;;;;;;36.60;33.57;;;;;;;11.92;100.00;100727.91;5074134;28;20466;-46
2022/10/16 01:09:15;;;;;;;35.50;33.20;;;;;;;11.91;100.00;100729.78;5074773;28;20785;-52
2022/10/16 01:11:55;;;;;;;36.30;33.43;;;;;;;11.91;100.00;100728.94;5059091;28;20442;-48
2022/10/16 01:14:28;;;;;;;35.60;33.17;;;;;;;11.91;100.00;100723.59;5074532;28;20427;-48
2022/10/16 01:17:01;;;;;;;34.77;32.33;;;;;;;11.91;100.00;100718.25;5073756;28;20470;-52
2022/10/16 01:19:43;;;;;;;35.33;32.60;;;;;;;11.90;100.00;100725.44;5073321;28;20419;-51
2022/10/16 01:22:12;;;;;;;34.83;32.77;;;;;;;11.90;100.00;100724.63;5069145;28;20450;-46
2022/10/16 01:24:41;;;;;;;36.97;34.47;;;;;;;11.90;100.00;100721.94;5074234;28;20476;-50
2022/10/16 01:27:15;;;;;;;34.97;32.70;;;;;;;11.88;100.00;100722.16;5073850;28;20539;-48
2022/10/16 01:29:52;;;;;;;35.70;33.27;;;;;;;11.88;100.00;100734.69;5074251;28;20522;-48
2022/10/16 01:32:25;;;;;;;34.40;32.40;;;;;;;11.88;100.00;100724.84;5073823;28;20511;-49
2022/10/16 01:34:58;;;;;;;34.83;32.43;;;;;;;11.88;100.00;100729.38;5073695;28;20489;-51
2022/10/16 01:37:34;;;;;;;34.93;32.27;;;;;;;11.85;100.00;100732.44;5074006;28;20989;-51
2022/10/16 01:40:06;;;;;;;34.27;31.83;;;;;;;11.84;100.00;100730.78;5073973;28;20426;-51
2022/10/16 01:42:39;;;;;;;33.80;31.60;;;;;;;11.84;100.00;100723.59;5072812;28;20438;-51
2022/10/16 01:45:08;;;;;;;37.87;34.30;;;;;;;11.83;100.00;100732.63;5073399;28;20511;-48
2022/10/16 01:47:37;;;;;;;34.50;32.50;;;;;;;11.83;100.00;100726.47;5073891;28;20503;-47
2022/10/16 01:50:06;;;;;;;34.73;32.43;;;;;;;11.82;100.00;100724.84;5073619;28;20528;-50
2022/10/16 01:52:37;;;;;;;35.47;33.10;;;;;;;11.81;100.00;100720.50;5073634;28;20507;-49
2022/10/16 01:55:07;;;;;;;34.93;32.60;;;;;;;11.79;100.00;100725.25;5073345;28;20504;-49
2022/10/16 01:57:39;;;;;;;36.73;34.23;;;;;;;11.79;100.00;100719.91;5073747;28;20430;-51
2022/10/16 02:00:12;;;;;;;37.00;34.70;;;;;;;11.77;100.00;100720.09;5073591;28;20423;-51
2022/10/16 02:02:42;;;;;;;36.80;34.30;;;;;;;11.75;100.00;100718.66;5073158;28;20450;-47
2022/10/16 02:05:17;;;;;;;36.60;34.10;;;;;;;11.75;100.00;100718.66;5073412;28;20515;-49
2022/10/16 02:07:44;;;;;;;37.00;34.73;;;;;;;11.71;100.00;100723.56;5073507;28;20479;-50
2022/10/16 02:10:12;;;;;;;36.53;34.20;;;;;;;11.71;100.00;100722.78;5073326;28;20531;-47
2022/10/16 02:12:45;;;;;;;37.23;34.07;;;;;;;11.70;100.00;100721.97;5073026;28;20485;-48
2022/10/16 02:15:12;;;;;;;36.73;34.53;;;;;;;11.68;100.00;100717.81;5072630;28;20454;-49
2022/10/16 02:17:40;;;;;;;38.53;35.83;;;;;;;11.65;100.00;100719.00;5073418;28;20438;-50
2022/10/16 02:20:08;;;;;;;37.63;35.30;;;;;;;11.62;100.00;100720.25;5066654;28;20435;-50
2022/10/16 02:22:40;;;;;;;38.20;35.50;;;;;;;11.60;100.00;100727.66;5071590;28;20454;-49
2022/10/16 02:25:11;;;;;;;38.53;35.83;;;;;;;11.56;100.00;100728.25;5072635;28;20519;-52
2022/10/16 02:27:46;;;;;;;38.83;36.17;;;;;;;11.53;100.00;100734.81;5072968;28;20823;-48
2022/10/16 02:30:20;;;;;;;38.10;35.40;;;;;;;11.51;100.00;100738.72;5072843;28;20515;-49
2022/10/16 02:32:49;;;;;;;37.03;34.63;;;;;;;11.50;100.00;100739.75;5072559;28;20835;-52
2022/10/16 02:35:19;;;;;;;38.60;35.60;;;;;;;11.48;100.00;100734.63;5072375;28;20443;-48
2022/10/16 02:37:47;;;;;;;37.03;34.70;;;;;;;11.46;100.00;100728.66;5072861;28;20426;-49
2022/10/16 02:40:16;;;;;;;37.00;34.50;;;;;;;11.44;100.00;100721.88;5072601;28;20434;-48
2022/10/16 02:42:51;;;;;;;37.80;35.40;;;;;;;11.42;100.00;100724.75;5072775;28;20519;-50
2022/10/16 02:45:19;;;;;;;36.17;33.77;;;;;;;11.40;100.00;100724.13;5072344;28;20480;-49
2022/10/16 02:47:47;;;;;;;36.43;33.90;;;;;;;11.36;100.00;100725.56;5072528;28;20483;-51
2022/10/16 02:50:15;;;;;;;39.13;36.40;;;;;;;11.35;100.00;100728.44;5072495;28;20884;-50
2022/10/16 02:52:42;;;;;;;37.20;34.47;;;;;;;11.32;100.00;100728.84;5072168;28;20504;-50
2022/10/16 02:55:10;;;;;;;36.23;33.93;;;;;;;11.32;100.00;100724.31;5072092;28;20454;-49
2022/10/16 02:57:40;;;;;;;39.33;35.20;;;;;;;11.31;100.00;100732.53;5072606;28;20483;-48
2022/10/16 03:00:12;;;;;;;37.47;34.93;;;;;;;11.29;100.00;100730.03;5072494;28;20479;-49
2022/10/16 03:02:39;;;;;;;36.27;34.23;;;;;;;11.28;100.00;100741.75;5072080;28;20959;-48
2022/10/16 03:05:08;;;;;;;37.17;34.70;;;;;;;11.28;100.00;100743.59;5071723;28;20454;-48
2022/10/16 03:07:36;;;;;;;36.47;34.10;;;;;;;11.26;100.00;100738.44;5072507;28;20525;-52
2022/10/16 03:10:04;;;;;;;36.70;34.30;;;;;;;11.26;100.00;100740.31;5072316;28;20470;-51
2022/10/16 03:12:32;;;;;;;37.33;34.80;;;;;;;11.24;100.00;100745.03;5071959;28;20500;-47
2022/10/16 03:15:00;;;;;;;38.03;35.30;;;;;;;11.22;100.00;100739.91;5071646;28;20430;-50
2022/10/16 03:17:29;;;;;;;36.90;34.50;;;;;;;11.20;100.00;100736.59;5072134;28;20430;-50
2022/10/16 03:19:57;;;;;;;37.37;34.97;;;;;;;11.18;100.00;100741.31;5066938;28;20434;-49
2022/10/16 03:22:24;;;;;;;37.40;34.63;;;;;;;11.18;100.00;100751.16;5068891;28;20446;-49
2022/10/16 03:24:52;;;;;;;35.67;33.30;;;;;;;11.16;100.00;100739.88;5071643;28;20422;-49
2022/10/16 03:27:20;;;;;;;36.87;34.30;;;;;;;11.14;100.00;100737.38;5072034;28;20427;-52
2022/10/16 03:29:47;;;;;;;38.07;34.90;;;;;;;11.10;100.00;100739.66;5071936;28;20474;-53
2022/10/16 03:32:15;;;;;;;36.60;34.13;;;;;;;11.09;100.00;100746.00;5071408;28;20894;-49
2022/10/16 03:34:44;;;;;;;36.87;34.47;;;;;;;11.08;100.00;100746.19;5071900;28;20464;-51
2022/10/16 03:37:11;;;;;;;35.90;33.87;;;;;;;11.06;100.00;100730.41;5071733;28;20492;-51
2022/10/16 03:39:39;;;;;;;37.87;35.17;;;;;;;11.04;100.00;100734.28;5071925;28;20460;-51
2022/10/16 03:42:06;;;;;;;38.77;36.00;;;;;;;11.03;100.00;100745.97;5071569;28;20511;-53
2022/10/16 03:44:34;;;;;;;38.27;35.70;;;;;;;11.00;100.00;100736.53;5071804;28;20438;-53
2022/10/16 03:47:01;;;;;;;36.60;34.07;;;;;;;10.99;100.00;100740.22;5071155;28;20515;-46
2022/10/16 03:49:29;;;;;;;38.13;35.20;;;;;;;10.99;100.00;100736.75;5071958;28;20430;-48
2022/10/16 03:51:58;;;;;;;37.87;35.20;;;;;;;10.97;100.00;100736.09;5071483;28;20871;-52
2022/10/16 03:54:26;;;;;;;39.33;36.53;;;;;;;10.96;100.00;100737.94;5071756;28;20434;-53
2022/10/16 03:56:53;;;;;;;37.77;35.10;;;;;;;10.94;100.00;100742.66;5071188;28;20462;-51
2022/10/16 03:59:21;;;;;;;39.63;36.63;;;;;;;10.92;100.00;100747.38;5071339;28;20426;-49
2022/10/16 04:01:48;;;;;;;40.30;37.63;;;;;;;10.92;100.00;100744.72;5071542;28;20430;-46
2022/10/16 04:04:16;;;;;;;39.57;37.20;;;;;;;10.91;100.00;100751.06;5071752;28;20462;-46
2022/10/16 04:06:43;;;;;;;40.20;36.93;;;;;;;10.91;100.00;100747.56;5073232;28;20474;-49
2022/10/16 04:09:12;;;;;;;38.73;36.33;;;;;;;10.90;100.00;100756.59;5075755;28;20839;-51
2022/10/16 04:11:40;;;;;;;39.63;36.83;;;;;;;10.90;100.00;100761.94;5075244;28;20538;-49
2022/10/16 04:14:08;;;;;;;42.17;39.60;;;;;;;10.89;100.00;100766.44;5075535;28;20490;-51
2022/10/16 04:16:35;;;;;;;41.13;38.40;;;;;;;10.90;100.00;100767.28;5075063;28;20535;-54
2022/10/16 04:19:03;;;;;;;43.43;40.07;;;;;;;10.90;100.00;100756.59;5075633;28;20434;-51
2022/10/16 04:21:31;;;;;;;43.50;40.60;;;;;;;10.88;100.00;100762.13;5066707;28;20430;-51
2022/10/16 04:23:58;;;;;;;43.73;40.70;;;;;;;10.88;100.00;100770.13;5075518;28;20476;-49
2022/10/16 04:26:27;;;;;;;42.47;39.87;;;;;;;10.88;100.00;100763.97;5074698;28;20809;-52
2022/10/16 04:28:55;;;;;;;41.50;38.93;;;;;;;10.88;100.00;100759.47;5075528;28;20438;-53
2022/10/16 04:31:23;;;;;;;42.40;39.80;;;;;;;10.90;100.00;100764.63;5075011;28;20564;-52
2022/10/16 04:33:50;;;;;;;41.10;38.60;;;;;;;10.89;100.00;100769.13;5075187;28;20453;-51
2022/10/16 04:36:18;;;;;;;41.13;38.63;;;;;;;10.89;100.00;100771.78;5074648;28;20462;-52
2022/10/16 04:38:45;;;;;;;41.73;38.20;;;;;;;10.89;100.00;100776.28;5075104;28;20460;-49
2022/10/16 04:41:13;;;;;;;40.60;38.20;;;;;;;10.90;100.00;100780.63;5074763;28;20434;-48
2022/10/16 04:43:42;;;;;;;40.57;38.17;;;;;;;10.90;100.00;100786.75;5075045;28;20959;-51
2022/10/16 04:46:10;;;;;;;41.13;38.00;;;;;;;10.90;100.00;100792.09;5074422;28;20462;-49
2022/10/16 04:48:37;;;;;;;40.60;37.67;;;;;;;10.90;100.00;100786.75;5074968;28;20483;-47
2022/10/16 04:51:05;;;;;;;40.23;37.40;;;;;;;10.91;100.00;100793.75;5074648;28;20473;-47
2022/10/16 04:53:33;;;;;;;38.20;36.10;;;;;;;10.92;100.00;100783.91;5074593;28;20454;-49
2022/10/16 04:56:00;;;;;;;38.50;36.30;;;;;;;10.92;100.00;100792.75;5074396;28;20466;-46
2022/10/16 04:58:28;;;;;;;39.60;37.20;;;;;;;10.91;100.00;100791.09;5074854;28;20843;-51
2022/10/16 05:00:57;;;;;;;38.57;36.20;;;;;;;10.92;100.00;100791.91;5075123;28;20483;-45
2022/10/16 05:03:24;;;;;;;38.07;35.83;;;;;;;10.93;100.00;100789.03;5074702;28;20453;-47
2022/10/16 05:05:52;;;;;;;40.73;38.00;;;;;;;10.92;100.00;100799.91;5074080;28;20991;-46
2022/10/16 05:08:20;;;;;;;39.60;36.77;;;;;;;10.90;100.00;100810.75;5074734;28;20881;-51
2022/10/16 05:10:47;;;;;;;39.63;37.43;;;;;;;10.90;100.00;100801.97;5074434;28;20470;-51
2022/10/16 05:13:15;;;;;;;38.70;36.60;;;;;;;10.91;100.00;100816.94;5074529;28;20450;-50
2022/10/16 05:15:43;;;;;;;41.87;38.93;;;;;;;10.93;100.00;100821.03;5073837;28;21056;-51
2022/10/16 05:18:12;;;;;;;40.30;38.20;;;;;;;10.96;100.00;100817.97;5072890;28;20435;-53
2022/10/16 05:20:39;;;;;;;40.40;38.10;;;;;;;10.99;100.00;100820.25;5065622;28;20508;-50
2022/10/16 05:23:07;;;;;;;39.83;37.20;;;;;;;11.03;100.00;100823.38;5073821;28;20450;-53
2022/10/16 05:25:34;;;;;;;41.20;38.90;;;;;;;11.05;100.00;100822.13;5073425;28;20471;-50
2022/10/16 05:28:02;;;;;;;41.00;38.30;;;;;;;11.09;100.00;100815.41;5074267;28;20487;-50
2022/10/16 05:30:30;;;;;;;40.27;37.70;;;;;;;11.12;100.00;100822.19;5074002;28;20441;-51
2022/10/16 05:32:57;;;;;;;40.30;37.77;;;;;;;11.17;100.00;100827.72;5073602;28;20991;-49
2022/10/16 05:35:26;;;;;;;41.00;38.10;;;;;;;11.22;100.00;100824.50;5073288;28;20991;-49
2022/10/16 05:37:54;;;;;;;39.13;36.60;;;;;;;11.27;100.00;100814.03;5073918;28;20936;-52
2022/10/16 05:40:22;;;;;;;38.57;35.97;;;;;;;11.32;100.00;100814.28;5073928;28;20434;-52
2022/10/16 05:42:49;;;;;;;38.30;36.00;;;;;;;11.35;100.00;100824.56;5072358;28;20979;-51
2022/10/16 05:45:17;;;;;;;38.20;35.87;;;;;;;11.38;100.00;100818.81;5073309;28;21003;-47
2022/10/16 05:47:44;;;;;;;37.37;35.30;;;;;;;11.40;100.00;100812.25;5073634;28;20927;-51
2022/10/16 05:50:12;;;;;;;37.80;35.60;;;;;;;11.41;100.00;100802.41;5073996;28;20457;-46
2022/10/16 05:52:41;;;;;;;36.40;34.10;;;;;;;11.41;100.00;100807.75;5073497;28;20529;-48
2022/10/16 05:55:09;;;;;;;37.17;34.67;;;;;;;11.41;100.00;100813.09;5073238;28;20516;-47
2022/10/16 05:57:36;;;;;;;36.87;34.80;;;;;;;11.41;100.00;100813.09;5073080;28;20457;-49
2022/10/16 06:00:05;;;;;;;37.77;35.67;;;;;;;11.41;100.00;100813.09;5073554;28;20496;-47
2022/10/16 06:02:33;;;;;;;37.17;35.00;;;;;;;11.41;100.00;100815.75;5073404;28;20446;-49
2022/10/16 06:05:00;;;;;;;36.90;34.80;;;;;;;11.44;100.00;100820.69;5073167;28;20438;-50
2022/10/16 06:07:28;;;;;;;36.77;34.57;;;;;;;11.45;100.00;100822.31;5073344;28;20435;-51
2022/10/16 06:09:57;;;;;;;35.53;33.50;;;;;;;11.47;100.00;100830.94;5073249;28;20442;-47
2022/10/16 06:12:24;;;;;;;37.23;35.13;;;;;;;11.48;100.00;100820.06;5072513;28;20539;-50
2022/10/16 06:14:52;;;;;;;35.57;33.57;;;;;;;11.51;100.00;100832.19;5072463;28;20858;-48
2022/10/16 06:17:20;;;;;;;34.30;32.50;;;;;;;11.53;100.00;100830.13;5073194;28;20924;-48
2022/10/16 06:19:47;;;;;;;36.00;33.90;;;;;;;11.55;100.00;100844.13;5069454;28;20428;-51
2022/10/16 06:22:15;;;;;;;35.80;33.87;;;;;;;11.56;100.00;100840.41;5068553;28;20474;-51
2022/10/16 06:24:43;;;;;;;35.60;33.33;;;;;;;11.59;100.00;100848.03;5072177;28;20484;-47
2022/10/16 06:27:12;;;;;;;35.53;33.23;;;;;;;11.61;100.00;100846.84;5072919;28;20434;-48
2022/10/16 06:29:40;;;;;;;36.13;33.87;;;;;;;11.66;100.00;100851.56;5072500;28;21126;-50
2022/10/16 06:32:07;;;;;;;35.03;33.03;;;;;;;11.72;100.00;100852.63;5072292;28;20997;-46
2022/10/16 06:34:35;;;;;;;34.87;32.87;;;;;;;11.77;100.00;100844.84;5072963;28;20635;-47
2022/10/16 06:37:04;;;;;;;34.40;32.23;;;;;;;11.79;100.00;100859.66;5072199;28;20458;-46
2022/10/16 06:39:32;;;;;;;35.70;33.60;;;;;;;11.83;100.00;100865.41;5071582;28;20434;-48
2022/10/16 06:41:59;;;;;;;35.53;33.53;;;;;;;11.84;100.00;100872.41;5068421;28;20451;-48
2022/10/16 06:44:33;;;;;;;35.50;33.40;;;;;;;11.85;100.00;100866.03;5072580;28;20439;-46
2022/10/16 06:47:01;;;;;;;36.70;34.60;;;;;;;11.86;100.00;100871.16;5071973;28;20466;-49
2022/10/16 06:49:28;;;;;;;35.63;33.33;;;;;;;11.87;100.00;100859.47;5072432;28;20452;-49
2022/10/16 06:51:56;;;;;;;36.00;33.90;;;;;;;11.94;100.00;100865.66;5071948;28;20991;-46
2022/10/16 06:54:23;;;;;;;35.17;33.17;;;;;;;12.06;100.00;100871.22;5071665;28;20426;-47
2022/10/16 06:56:53;;;;;;;34.00;32.10;;;;;;;12.19;100.00;100876.59;5071896;28;20862;-47
2022/10/16 06:59:21;;;;;;;34.70;32.50;;;;;;;12.36;100.00;100869.00;5072175;28;20488;-46
2022/10/16 07:01:50;;;;;;;34.33;32.17;;;;;;;12.50;100.00;100873.31;5071903;28;20438;-47
2022/10/16 07:04:18;;;;;;;33.80;31.80;;;;;;;12.70;100.00;100874.97;5072123;28;20436;-46
2022/10/16 07:06:45;;;;;;;34.57;32.50;;;;;;;12.97;100.00;100877.59;5071011;28;21019;-46
2022/10/16 07:09:13;;;;;;;33.23;31.50;;;;;;;13.25;100.00;100880.88;5071714;28;20982;-48
2022/10/16 07:11:41;;;;;;;34.03;32.23;;;;;;;13.46;100.00;100880.59;5071616;28;20491;-51
2022/10/16 07:14:16;;;;;;;33.83;31.90;;;;;;;13.41;100.00;100883.06;5071299;28;20460;-50
2022/10/16 07:16:44;;;;;;;34.60;32.47;;;;;;;13.51;100.00;100887.97;5070571;28;20462;-47
2022/10/16 07:19:14;;;;;;;34.23;32.43;;;;;;;13.62;100.00;100884.66;5069971;28;21013;-49
2022/10/16 07:21:42;;;;;;;34.13;32.30;;;;;;;13.74;100.00;100899.00;5069555;28;20847;-47
2022/10/16 07:24:14;;;;;;;35.07;33.17;;;;;;;13.77;100.00;100896.72;5070779;28;20831;-52
2022/10/16 07:26:43;;;;;;;34.83;32.90;;;;;;;13.84;100.00;100889.50;5069992;28;20971;-50
2022/10/16 07:29:15;;;;;;;35.33;32.97;;;;;;;13.92;100.00;100896.44;5071682;28;20831;-47
2022/10/16 07:31:42;;;;;;;35.07;32.77;;;;;;;14.06;100.00;100898.03;5069369;28;20434;-47
2022/10/16 07:34:10;;;;;;;34.53;32.40;;;;;;;14.07;100.00;100893.47;5068540;28;20491;-46
2022/10/16 07:36:39;;;;;;;34.90;32.83;;;;;;;14.10;100.00;100893.03;5069436;28;20462;-46
2022/10/16 07:39:10;;;;;;;35.20;33.00;;;;;;;14.01;100.00;100883.63;5070575;28;20493;-46
2022/10/16 07:41:37;;;;;;;34.37;32.57;;;;;;;14.08;100.00;100879.03;5069651;28;20479;-48
2022/10/16 07:44:06;;;;;;;34.90;32.80;;;;;;;14.18;100.00;100882.91;5071687;28;20422;-45
2022/10/16 07:46:35;;;;;;;34.80;32.90;;;;;;;14.21;100.00;100868.25;5071146;28;20809;-46
2022/10/16 07:49:03;;;;;;;35.23;33.10;;;;;;;14.21;100.00;100885.16;5071600;28;20939;-46
2022/10/16 07:51:31;;;;;;;33.40;31.80;;;;;;;14.23;100.00;100898.34;5070934;28;20484;-48
2022/10/16 07:54:00;;;;;;;33.10;31.40;;;;;;;14.27;100.00;100892.34;5071560;28;20531;-49
2022/10/16 07:56:27;;;;;;;34.10;32.20;;;;;;;14.29;100.00;100900.16;5069158;28;20497;-47
2022/10/16 07:58:56;;;;;;;35.00;33.00;;;;;;;14.28;100.00;100910.06;5071203;28;20827;-46
2022/10/16 08:01:25;;;;;;;32.33;30.70;;;;;;;14.17;100.00;100907.25;5069387;28;20434;-47
2022/10/16 08:03:53;;;;;;;34.77;32.40;;;;;;;14.30;100.00;100920.59;5071356;28;20811;-47
2022/10/16 08:06:22;;;;;;;32.63;30.87;;;;;;;14.29;100.00;100918.94;5070527;28;20883;-48
2022/10/16 08:08:55;;;;;;;33.03;31.30;;;;;;;14.40;100.00;100915.56;5071256;28;20437;-47
2022/10/16 08:11:24;;;;;;;32.70;30.90;;;;;;;14.40;100.00;100923.63;5069553;28;20464;-48
2022/10/16 08:13:51;;;;;;;32.80;31.10;;;;;;;14.47;100.00;100915.53;5069423;28;20518;-47
2022/10/16 08:16:19;;;;;;;32.30;30.70;;;;;;;14.53;100.00;100920.03;5068206;28;20488;-48
2022/10/16 08:18:47;;;;;;;32.17;30.47;;;;;;;14.60;100.00;100915.44;5070480;28;20947;-49
2022/10/16 08:21:16;;;;;;;34.00;32.03;;;;;;;14.68;100.00;100918.69;5061536;28;20438;-50
2022/10/16 08:23:48;;;;;;;32.93;30.80;;;;;;;14.81;100.00;100928.50;5051300;28;20455;-47
2022/10/16 08:26:26;;;;;;;32.80;31.00;;;;;;;14.91;100.00;100945.75;5050895;28;20461;-53
2022/10/16 08:28:54;;;;;;;33.03;31.17;;;;;;;15.03;100.00;100943.16;5051596;28;20840;-52
2022/10/16 08:31:23;;;;;;;32.90;31.10;;;;;;;15.06;100.00;100947.25;5051081;28;20467;-49
2022/10/16 08:33:52;;;;;;;31.80;30.20;;;;;;;15.13;100.00;100956.91;5051199;28;20479;-46
2022/10/16 08:36:19;;;;;;;33.40;31.80;;;;;;;15.25;100.00;100951.63;5050645;28;21053;-46
2022/10/16 08:38:49;;;;;;;34.57;32.63;;;;;;;15.28;100.00;100956.56;5051140;28;20856;-48
2022/10/16 08:41:48;;;;;;;34.20;32.30;;;;;;;15.33;100.00;100960.22;5051130;28;20840;-47
2022/10/16 08:44:58;;;;;;;32.50;30.80;;;;;;;15.34;100.00;100959.19;5051113;28;20856;-51
2022/10/16 08:47:36;;;;;;;33.67;31.80;;;;;;;15.36;100.00;100954.41;5031190;28;20512;-46
2022/10/16 08:50:11;;;;;;;33.10;31.40;;;;;;;15.24;100.00;100966.09;5051092;28;20458;-49
2022/10/16 08:52:42;;;;;;;31.73;30.13;;;;;;;15.29;100.00;100977.03;5052582;28;20524;-50
2022/10/16 08:55:30;;;;;;;32.20;30.27;;;;;;;15.30;100.00;100976.78;5066251;28;20975;-51
2022/10/16 08:57:59;;;;;;;33.80;31.67;;;;;;;15.48;100.00;100973.31;5073248;28;20442;-46
2022/10/16 09:00:28;;;;;;;33.90;31.80;;;;;;;15.52;100.00;100979.91;5072756;28;20440;-47
2022/10/16 09:03:05;;;;;;;32.20;30.60;;;;;;;15.66;100.00;100986.78;5073091;28;20517;-50
2022/10/16 09:05:50;;;;;;;31.93;30.43;;;;;;;15.85;100.00;100990.28;5072547;28;20877;-49
2022/10/16 09:08:24;;;;;;;32.20;30.40;;;;;;;16.00;100.00;100985.34;5072913;28;20434;-46
2022/10/16 09:10:58;;;;;;;32.23;30.73;;;;;;;16.02;100.00;100999.38;5072238;28;20433;-48
2022/10/16 09:13:33;;;;;;;31.13;29.60;;;;;;;15.98;100.00;100999.00;5072682;28;20536;-48
2022/10/16 09:16:15;;;;;;;33.40;31.00;;;;;;;15.99;100.00;100983.69;5071249;28;20519;-48
2022/10/16 09:18:52;;;;;;;33.33;31.27;;;;;;;16.20;100.00;100993.16;5069910;28;20446;-50
2022/10/16 09:21:24;;;;;;;32.43;30.60;;;;;;;16.44;100.00;101002.97;5067373;28;20789;-49
2022/10/16 09:23:52;;;;;;;33.27;31.17;;;;;;;16.57;100.00;101006.34;5063571;28;20855;-52
2022/10/16 09:26:21;;;;;;;31.73;29.93;;;;;;;16.63;100.00;100995.69;5073179;28;20466;-54
2022/10/16 09:28:53;;;;;;;32.87;30.27;;;;;;;16.68;100.00;100999.34;5073529;28;20430;-47
2022/10/16 09:31:22;;;;;;;31.47;29.77;;;;;;;16.81;100.00;101012.63;5072916;28;20446;-50
2022/10/16 09:33:54;;;;;;;32.47;30.17;;;;;;;16.90;100.00;101010.41;5047797;28;20502;-50
2022/10/16 09:36:24;;;;;;;31.83;30.00;;;;;;;16.66;100.00;100997.94;5061991;28;20845;-47
2022/10/16 09:39:03;;;;;;;31.10;29.60;;;;;;;16.56;100.00;101012.78;5053205;28;20505;-50
2022/10/16 09:41:31;;;;;;;31.17;29.10;;;;;;;16.41;100.00;101008.81;5052835;28;20453;-48
2022/10/16 09:44:02;;;;;;;29.70;28.13;;;;;;;16.49;100.00;101021.94;5052793;28;20459;-50
2022/10/16 09:46:31;;;;;;;30.47;28.57;;;;;;;16.66;100.00;101030.25;5053298;28;20983;-54
2022/10/16 09:49:01;;;;;;;29.90;28.20;;;;;;;16.95;100.00;101027.50;5052624;28;20438;-49
2022/10/16 09:51:30;;;;;;;30.93;28.70;;;;;;;17.02;100.00;101032.81;5052395;28;20496;-47
2022/10/16 09:54:00;;;;;;;29.53;27.90;;;;;;;17.04;100.00;101031.50;5052337;28;20516;-48
2022/10/16 09:56:29;;;;;;;28.50;26.87;;;;;;;16.93;100.00;101032.31;5053218;28;20485;-51
2022/10/16 09:58:59;;;;;;;27.80;26.20;;;;;;;16.77;100.00;101049.13;5052755;28;20489;-53
2022/10/16 10:01:32;;;;;;;27.70;26.20;;;;;;;16.71;100.00;101047.34;5052451;28;20435;-49
2022/10/16 10:04:02;;;;;;;28.87;27.10;;;;;;;16.70;100.00;101044.88;5048093;28;20525;-54
2022/10/16 10:06:34;;;;;;;28.33;26.70;;;;;;;16.82;100.00;101051.94;5053082;28;20442;-50
2022/10/16 10:09:06;;;;;;;28.73;27.20;;;;;;;17.10;100.00;101051.31;5049640;28;20443;-51
2022/10/16 10:11:43;;;;;;;28.20;26.80;;;;;;;17.38;100.00;101053.34;5022767;28;20513;-51
2022/10/16 10:14:18;;;;;;;28.37;26.77;;;;;;;17.31;97.96;101071.50;5051716;28;20818;-53
2022/10/16 10:16:48;;;;;;;29.10;27.20;;;;;;;17.48;97.83;101067.88;5052602;28;20480;-52
2022/10/16 10:19:17;;;;;;;27.53;26.00;;;;;;;17.45;96.18;101062.97;5051008;28;20423;-54
2022/10/16 10:21:45;;;;;;;26.67;25.43;;;;;;;17.49;94.68;101074.09;5063128;28;20462;-49
2022/10/16 10:24:14;;;;;;;27.63;26.00;;;;;;;17.58;96.11;101075.44;5072351;28;20799;-54
2022/10/16 10:26:52;;;;;;;26.73;25.43;;;;;;;17.40;93.39;101081.72;5072712;28;20434;-50
2022/10/16 10:29:29;;;;;;;26.10;24.53;;;;;;;17.44;94.67;101082.88;5072243;28;20460;-52
2022/10/16 10:32:08;;;;;;;27.37;25.50;;;;;;;17.47;94.89;101093.19;5064611;28;20994;-52
2022/10/16 10:34:57;;;;;;;26.13;24.03;;;;;;;17.37;91.95;101084.88;5071995;28;20477;-54
2022/10/16 10:37:42;;;;;;;24.50;23.27;;;;;;;17.27;93.06;101095.41;5072372;28;20438;-49
2022/10/16 10:40:35;;;;;;;27.07;25.27;;;;;;;17.59;95.48;101085.97;5071642;28;20935;-49
2022/10/16 10:43:10;;;;;;;24.63;23.20;;;;;;;17.57;94.95;101087.25;5071375;28;20490;-50
2022/10/16 10:45:43;;;;;;;23.27;21.90;;;;;;;17.72;92.81;101094.88;5032293;28;20471;-48
2022/10/16 10:48:30;;;;;;;24.27;22.67;;;;;;;17.50;92.67;101100.03;5032524;28;20424;-52
2022/10/16 10:51:05;;;;;;;22.50;21.20;;;;;;;17.40;91.98;101097.06;5041374;28;20435;-49
2022/10/16 10:53:45;;;;;;;23.37;22.10;;;;;;;17.48;92.61;101104.81;5057951;28;20474;-48
2022/10/16 10:56:23;;;;;;;21.67;20.67;;;;;;;17.42;93.40;101111.13;5072136;28;20426;-47
2022/10/16 10:59:20;;;;;;;21.33;20.10;;;;;;;17.50;92.60;101113.50;5071769;28;21022;-52
2022/10/16 11:01:55;;;;;;;22.00;20.80;;;;;;;17.66;93.00;101110.97;5071907;28;20515;-50
2022/10/16 11:04:41;;;;;;;20.93;19.60;;;;;;;17.62;91.90;101107.06;5071388;28;20946;-54
2022/10/16 11:07:17;;;;;;;20.07;19.07;;;;;;;17.54;91.31;101112.81;5071862;28;20842;-52
2022/10/16 11:09:48;;;;;;;19.13;18.23;;;;;;;17.62;91.83;101135.94;5059697;28;20430;-50
2022/10/16 11:12:19;;;;;;;18.80;17.53;;;;;;;17.41;92.33;101121.09;5060214;28;20517;-50
2022/10/16 11:14:55;;;;;;;19.03;18.10;;;;;;;17.36;92.26;101147.94;5068957;28;20550;-54
2022/10/16 11:17:29;;;;;;;17.63;16.50;;;;;;;17.59;92.55;101133.72;5071952;28;20842;-51